sensor_id;sensor_type;location;lat;lon;timestamp;pressure;altitude;pressure_sealevel;temperature;humidity
29903;BME280;30288;50.514;9.678;2022-12-16T00:02:06;97915.66;;;-12.44;100.00
29903;BME280;30288;50.514;9.678;2022-12-16T00:04:11;97914.81;;;-12.28;100.00
29903;BME280;30288;50.514;9.678;2022-12-16T00:06:20;97921.00;;;-12.17;100.00
29903;BME280;30288;50.514;9.678;2022-12-16T00:08:28;97919.34;;;-12.18;100.00
29903;BME280;30288;50.514;9.678;2022-12-16T00:10:34;97915.03;;;-12.24;100.00
29903;BME280;30288;50.514;9.678;2022-12-16T00:12:56;97909.50;;;-12.21;100.00
29903;BME280;30288;50.514;9.678;2022-12-16T00:15:05;97916.19;;;-12.33;100.00
29903;BME280;30288;50.514;9.678;2022-12-16T00:17:11;97914.34;;;-12.21;100.00
29903;BME280;30288;50.514;9.678;2022-12-16T00:19:16;97910.06;;;-12.09;100.00
29903;BME280;30288;50.514;9.678;2022-12-16T00:21:21;97908.47;;;-12.09;100.00
29903;BME280;30288;50.514;9.678;2022-12-16T00:23:33;97912.38;;;-12.28;100.00
29903;BME280;30288;50.514;9.678;2022-12-16T00:25:44;97920.97;;;-12.35;100.00
29903;BME280;30288;50.514;9.678;2022-12-16T00:27:49;97915.31;;;-12.35;100.00
29903;BME280;30288;50.514;9.678;2022-12-16T00:30:01;97908.84;;;-12.35;100.00
29903;BME280;30288;50.514;9.678;2022-12-16T00:32:06;97910.19;;;-12.06;100.00
29903;BME280;30288;50.514;9.678;2022-12-16T00:34:11;97900.78;;;-12.18;100.00
29903;BME280;30288;50.514;9.678;2022-12-16T00:36:16;97909.00;;;-12.14;100.00
29903;BME280;30288;50.514;9.678;2022-12-16T00:38:22;97908.25;;;-12.13;100.00
29903;BME280;30288;50.514;9.678;2022-12-16T00:40:30;97909.44;;;-12.23;100.00
29903;BME280;30288;50.514;9.678;2022-12-16T00:42:35;97916.91;;;-12.36;100.00
29903;BME280;30288;50.514;9.678;2022-12-16T00:44:40;97907.41;;;-12.31;100.00
29903;BME280;30288;50.514;9.678;2022-12-16T00:46:45;97917.25;;;-12.45;100.00
29903;BME280;30288;50.514;9.678;2022-12-16T00:48:51;97918.75;;;-12.30;100.00
29903;BME280;30288;50.514;9.678;2022-12-16T00:50:56;97919.03;;;-12.24;100.00
29903;BME280;30288;50.514;9.678;2022-12-16T00:53:01;97914.06;;;-12.27;100.00
29903;BME280;30288;50.514;9.678;2022-12-16T00:55:09;97914.94;;;-12.25;100.00
29903;BME280;30288;50.514;9.678;2022-12-16T00:57:16;97912.97;;;-12.16;100.00
29903;BME280;30288;50.514;9.678;2022-12-16T00:59:22;97906.50;;;-12.33;100.00
29903;BME280;30288;50.514;9.678;2022-12-16T01:01:27;97910.06;;;-12.43;100.00
29903;BME280;30288;50.514;9.678;2022-12-16T01:03:33;97904.69;;;-12.54;100.00
29903;BME280;30288;50.514;9.678;2022-12-16T01:05:39;97915.19;;;-12.55;100.00
29903;BME280;30288;50.514;9.678;2022-12-16T01:07:44;97903.94;;;-12.53;100.00
29903;BME280;30288;50.514;9.678;2022-12-16T01:09:49;97906.53;;;-12.50;100.00
29903;BME280;30288;50.514;9.678;2022-12-16T01:11:55;97917.03;;;-12.49;100.00
29903;BME280;30288;50.514;9.678;2022-12-16T01:14:03;97918.97;;;-12.60;100.00
29903;BME280;30288;50.514;9.678;2022-12-16T01:16:08;97912.47;;;-12.61;100.00
29903;BME280;30288;50.514;9.678;2022-12-16T01:18:13;97910.66;;;-12.65;100.00
29903;BME280;30288;50.514;9.678;2022-12-16T01:20:18;97919.84;;;-12.42;100.00
29903;BME280;30288;50.514;9.678;2022-12-16T01:22:24;97923.91;;;-12.24;100.00
29903;BME280;30288;50.514;9.678;2022-12-16T01:24:29;97920.47;;;-11.94;100.00
29903;BME280;30288;50.514;9.678;2022-12-16T01:26:34;97919.34;;;-12.01;100.00
29903;BME280;30288;50.514;9.678;2022-12-16T01:28:40;97917.97;;;-12.13;100.00
29903;BME280;30288;50.514;9.678;2022-12-16T01:30:47;97912.81;;;-12.19;100.00
29903;BME280;30288;50.514;9.678;2022-12-16T01:32:53;97916.81;;;-12.37;100.00
29903;BME280;30288;50.514;9.678;2022-12-16T01:34:58;97921.38;;;-12.44;100.00
29903;BME280;30288;50.514;9.678;2022-12-16T01:37:03;97923.03;;;-12.43;100.00
29903;BME280;30288;50.514;9.678;2022-12-16T01:39:10;97926.47;;;-12.55;100.00
29903;BME280;30288;50.514;9.678;2022-12-16T01:41:16;97923.13;;;-12.41;100.00
29903;BME280;30288;50.514;9.678;2022-12-16T01:43:24;97940.31;;;-12.53;100.00
29903;BME280;30288;50.514;9.678;2022-12-16T01:45:33;97932.72;;;-12.43;100.00
29903;BME280;30288;50.514;9.678;2022-12-16T01:47:41;97940.53;;;-12.32;100.00
29903;BME280;30288;50.514;9.678;2022-12-16T01:49:50;97937.50;;;-12.44;100.00
29903;BME280;30288;50.514;9.678;2022-12-16T01:52:00;97949.19;;;-12.53;100.00
29903;BME280;30288;50.514;9.678;2022-12-16T01:54:10;97949.19;;;-12.53;100.00
29903;BME280;30288;50.514;9.678;2022-12-16T01:56:17;97942.28;;;-12.62;100.00
29903;BME280;30288;50.514;9.678;2022-12-16T01:58:28;97946.56;;;-12.74;100.00
29903;BME280;30288;50.514;9.678;2022-12-16T02:00:34;97938.38;;;-12.60;100.00
29903;BME280;30288;50.514;9.678;2022-12-16T02:02:45;97942.13;;;-12.49;100.00
29903;BME280;30288;50.514;9.678;2022-12-16T02:04:51;97950.28;;;-12.64;100.00
29903;BME280;30288;50.514;9.678;2022-12-16T02:07:10;97949.25;;;-12.68;100.00
29903;BME280;30288;50.514;9.678;2022-12-16T02:09:16;97950.41;;;-12.61;100.00
29903;BME280;30288;50.514;9.678;2022-12-16T02:14:20;97957.00;;;-12.75;100.00
29903;BME280;30288;50.514;9.678;2022-12-16T02:16:35;97961.00;;;-12.75;100.00
29903;BME280;30288;50.514;9.678;2022-12-16T02:18:52;97958.06;;;-12.86;100.00
29903;BME280;30288;50.514;9.678;2022-12-16T02:30:20;97950.19;;;-12.82;100.00
29903;BME280;30288;50.514;9.678;2022-12-16T02:32:30;97962.59;;;-12.92;100.00
29903;BME280;30288;50.514;9.678;2022-12-16T02:34:47;97956.09;;;-12.93;100.00
29903;BME280;30288;50.514;9.678;2022-12-16T02:37:12;97960.63;;;-12.67;100.00
29903;BME280;30288;50.514;9.678;2022-12-16T02:39:23;97955.63;;;-12.86;100.00
29903;BME280;30288;50.514;9.678;2022-12-16T02:41:41;97950.97;;;-12.83;100.00
29903;BME280;30288;50.514;9.678;2022-12-16T02:43:55;97957.44;;;-12.98;100.00
29903;BME280;30288;50.514;9.678;2022-12-16T02:46:06;97955.47;;;-13.05;100.00
29903;BME280;30288;50.514;9.678;2022-12-16T02:48:12;97954.44;;;-12.94;100.00
29903;BME280;30288;50.514;9.678;2022-12-16T02:50:21;97957.13;;;-13.04;100.00
29903;BME280;30288;50.514;9.678;2022-12-16T02:52:31;97943.38;;;-12.89;100.00
29903;BME280;30288;50.514;9.678;2022-12-16T02:54:37;97944.72;;;-12.94;100.00
29903;BME280;30288;50.514;9.678;2022-12-16T02:56:53;97943.53;;;-13.18;100.00
29903;BME280;30288;50.514;9.678;2022-12-16T02:59:15;97949.41;;;-13.29;100.00
29903;BME280;30288;50.514;9.678;2022-12-16T03:01:30;97947.53;;;-13.19;100.00
29903;BME280;30288;50.514;9.678;2022-12-16T03:03:45;97943.72;;;-13.30;100.00
29903;BME280;30288;50.514;9.678;2022-12-16T03:05:52;97941.19;;;-13.17;100.00
29903;BME280;30288;50.514;9.678;2022-12-16T03:08:03;97937.63;;;-13.07;100.00
29903;BME280;30288;50.514;9.678;2022-12-16T03:10:14;97937.19;;;-13.16;100.00
29903;BME280;30288;50.514;9.678;2022-12-16T03:12:21;97940.34;;;-12.85;100.00
29903;BME280;30288;50.514;9.678;2022-12-16T03:14:31;97940.13;;;-12.73;100.00
29903;BME280;30288;50.514;9.678;2022-12-16T03:16:41;97941.38;;;-12.96;100.00
29903;BME280;30288;50.514;9.678;2022-12-16T03:18:51;97939.56;;;-13.00;100.00
29903;BME280;30288;50.514;9.678;2022-12-16T03:21:01;97937.31;;;-13.13;100.00
29903;BME280;30288;50.514;9.678;2022-12-16T03:23:12;97940.19;;;-13.20;100.00
29903;BME280;30288;50.514;9.678;2022-12-16T03:25:20;97944.41;;;-13.00;100.00
29903;BME280;30288;50.514;9.678;2022-12-16T03:27:33;97955.47;;;-13.05;100.00
29903;BME280;30288;50.514;9.678;2022-12-16T03:29:49;97944.59;;;-13.13;100.00
29903;BME280;30288;50.514;9.678;2022-12-16T03:32:02;97947.00;;;-13.13;100.00
29903;BME280;30288;50.514;9.678;2022-12-16T03:34:14;97951.13;;;-13.12;100.00
29903;BME280;30288;50.514;9.678;2022-12-16T03:36:22;97960.31;;;-13.05;100.00
29903;BME280;30288;50.514;9.678;2022-12-16T03:38:30;97956.63;;;-12.99;100.00
29903;BME280;30288;50.514;9.678;2022-12-16T03:40:38;97959.03;;;-12.99;100.00
29903;BME280;30288;50.514;9.678;2022-12-16T03:42:45;97962.91;;;-12.86;100.00
29903;BME280;30288;50.514;9.678;2022-12-16T03:44:50;97959.56;;;-12.72;100.00
29903;BME280;30288;50.514;9.678;2022-12-16T03:46:56;97965.34;;;-12.70;100.00
29903;BME280;30288;50.514;9.678;2022-12-16T03:49:03;97956.84;;;-12.78;100.00
29903;BME280;30288;50.514;9.678;2022-12-16T03:51:08;97957.75;;;-12.76;100.00
29903;BME280;30288;50.514;9.678;2022-12-16T03:53:13;97961.91;;;-12.90;100.00
29903;BME280;30288;50.514;9.678;2022-12-16T03:55:18;97968.50;;;-13.03;100.00
29903;BME280;30288;50.514;9.678;2022-12-16T03:57:24;97965.94;;;-12.90;100.00
29903;BME280;30288;50.514;9.678;2022-12-16T03:59:29;97972.88;;;-12.96;100.00
29903;BME280;30288;50.514;9.678;2022-12-16T04:01:34;97972.13;;;-12.95;100.00
29903;BME280;30288;50.514;9.678;2022-12-16T04:03:39;97977.75;;;-13.12;100.00
29903;BME280;30288;50.514;9.678;2022-12-16T04:05:47;97973.16;;;-13.06;100.00
29903;BME280;30288;50.514;9.678;2022-12-16T04:07:52;97976.38;;;-13.07;100.00
29903;BME280;30288;50.514;9.678;2022-12-16T04:10:04;97975.94;;;-13.16;100.00
29903;BME280;30288;50.514;9.678;2022-12-16T04:12:10;97982.81;;;-13.39;100.00
29903;BME280;30288;50.514;9.678;2022-12-16T04:14:27;97981.34;;;-13.20;100.00
29903;BME280;30288;50.514;9.678;2022-12-16T04:16:52;97980.13;;;-13.28;100.00
29903;BME280;30288;50.514;9.678;2022-12-16T04:19:21;97992.03;;;-13.48;100.00
29903;BME280;30288;50.514;9.678;2022-12-16T04:21:41;97976.78;;;-13.76;100.00
29903;BME280;30288;50.514;9.678;2022-12-16T04:23:59;97987.47;;;-13.87;100.00
29903;BME280;30288;50.514;9.678;2022-12-16T04:26:16;97990.56;;;-13.90;100.00
29903;BME280;30288;50.514;9.678;2022-12-16T04:28:21;97989.88;;;-13.72;100.00
29903;BME280;30288;50.514;9.678;2022-12-16T04:30:29;97992.88;;;-13.62;100.00
29903;BME280;30288;50.514;9.678;2022-12-16T04:32:36;97985.47;;;-13.80;100.00
29903;BME280;30288;50.514;9.678;2022-12-16T04:34:54;97986.06;;;-13.84;100.00
29903;BME280;30288;50.514;9.678;2022-12-16T04:37:02;97995.50;;;-13.59;100.00
29903;BME280;30288;50.514;9.678;2022-12-16T04:39:20;97990.56;;;-13.60;100.00
29903;BME280;30288;50.514;9.678;2022-12-16T04:41:38;97995.19;;;-13.49;100.00
29903;BME280;30288;50.514;9.678;2022-12-16T04:43:56;97993.81;;;-13.29;100.00
29903;BME280;30288;50.514;9.678;2022-12-16T04:46:14;98000.22;;;-13.46;100.00
29903;BME280;30288;50.514;9.678;2022-12-16T04:48:31;98006.72;;;-13.45;100.00
29903;BME280;30288;50.514;9.678;2022-12-16T04:50:49;98006.72;;;-13.45;100.00
29903;BME280;30288;50.514;9.678;2022-12-16T04:53:10;98013.41;;;-13.55;100.00
29903;BME280;30288;50.514;9.678;2022-12-16T04:55:27;98014.41;;;-13.52;100.00
29903;BME280;30288;50.514;9.678;2022-12-16T04:57:47;98016.41;;;-13.45;100.00
29903;BME280;30288;50.514;9.678;2022-12-16T05:00:07;98020.41;;;-13.30;100.00
29903;BME280;30288;50.514;9.678;2022-12-16T05:02:26;98021.44;;;-13.25;100.00
29903;BME280;30288;50.514;9.678;2022-12-16T05:04:44;98027.94;;;-13.41;100.00
29903;BME280;30288;50.514;9.678;2022-12-16T05:07:01;98015.03;;;-13.40;100.00
29903;BME280;30288;50.514;9.678;2022-12-16T05:09:21;98023.38;;;-13.35;100.00
29903;BME280;30288;50.514;9.678;2022-12-16T05:11:39;98028.41;;;-13.32;100.00
29903;BME280;30288;50.514;9.678;2022-12-16T05:13:56;98024.91;;;-13.37;100.00
29903;BME280;30288;50.514;9.678;2022-12-16T05:16:14;98021.78;;;-13.03;100.00
29903;BME280;30288;50.514;9.678;2022-12-16T05:18:31;98030.28;;;-12.95;100.00
29903;BME280;30288;50.514;9.678;2022-12-16T05:20:49;98028.69;;;-12.95;100.00
29903;BME280;30288;50.514;9.678;2022-12-16T05:23:08;98031.16;;;-13.09;100.00
29903;BME280;30288;50.514;9.678;2022-12-16T05:25:28;98041.50;;;-13.28;100.00
29903;BME280;30288;50.514;9.678;2022-12-16T05:27:49;98043.09;;;-13.28;100.00
29903;BME280;30288;50.514;9.678;2022-12-16T05:30:09;98046.69;;;-13.37;100.00
29903;BME280;30288;50.514;9.678;2022-12-16T05:32:34;98049.44;;;-13.30;100.00
29903;BME280;30288;50.514;9.678;2022-12-16T05:34:51;98050.63;;;-13.39;100.00
29903;BME280;30288;50.514;9.678;2022-12-16T05:37:21;98050.97;;;-13.47;100.00
29903;BME280;30288;50.514;9.678;2022-12-16T05:39:38;98056.19;;;-13.40;100.00
29903;BME280;30288;50.514;9.678;2022-12-16T05:41:58;98058.63;;;-13.40;100.00
29903;BME280;30288;50.514;9.678;2022-12-16T05:44:16;98051.78;;;-13.32;100.00
29903;BME280;30288;50.514;9.678;2022-12-16T05:46:33;98051.34;;;-13.40;100.00
29903;BME280;30288;50.514;9.678;2022-12-16T05:48:51;98064.84;;;-13.45;100.00
29903;BME280;30288;50.514;9.678;2022-12-16T05:51:09;98057.94;;;-13.22;100.00
29903;BME280;30288;50.514;9.678;2022-12-16T05:53:27;98070.47;;;-13.29;100.00
29903;BME280;30288;50.514;9.678;2022-12-16T05:55:45;98062.72;;;-13.39;100.00
29903;BME280;30288;50.514;9.678;2022-12-16T05:58:05;98078.31;;;-13.34;100.00
29903;BME280;30288;50.514;9.678;2022-12-16T06:00:23;98081.97;;;-13.25;100.00
29903;BME280;30288;50.514;9.678;2022-12-16T06:02:40;98080.00;;;-13.33;100.00
29903;BME280;30288;50.514;9.678;2022-12-16T06:04:59;98089.53;;;-13.36;100.00
29903;BME280;30288;50.514;9.678;2022-12-16T06:07:17;98099.03;;;-13.39;100.00
29903;BME280;30288;50.514;9.678;2022-12-16T06:09:34;98104.22;;;-13.47;100.00
29903;BME280;30288;50.514;9.678;2022-12-16T06:11:57;98109.56;;;-13.53;100.00
29903;BME280;30288;50.514;9.678;2022-12-16T06:14:18;98104.41;;;-13.59;100.00
29903;BME280;30288;50.514;9.678;2022-12-16T06:16:36;98120.22;;;-13.49;100.00
29903;BME280;30288;50.514;9.678;2022-12-16T06:18:55;98112.06;;;-13.37;100.00
29903;BME280;30288;50.514;9.678;2022-12-16T06:21:13;98114.06;;;-13.44;100.00
29903;BME280;30288;50.514;9.678;2022-12-16T06:23:31;98108.72;;;-13.39;100.00
29903;BME280;30288;50.514;9.678;2022-12-16T06:25:48;98116.72;;;-13.40;100.00
29903;BME280;30288;50.514;9.678;2022-12-16T06:28:06;98121.25;;;-13.46;100.00
29903;BME280;30288;50.514;9.678;2022-12-16T06:30:27;98124.25;;;-13.50;100.00
29903;BME280;30288;50.514;9.678;2022-12-16T06:32:44;98131.78;;;-13.45;100.00
29903;BME280;30288;50.514;9.678;2022-12-16T06:35:02;98133.59;;;-13.56;100.00
29903;BME280;30288;50.514;9.678;2022-12-16T06:37:20;98140.13;;;-13.55;100.00
29903;BME280;30288;50.514;9.678;2022-12-16T06:39:38;98139.59;;;-13.64;100.00
29903;BME280;30288;50.514;9.678;2022-12-16T06:41:56;98143.50;;;-13.66;100.00
29903;BME280;30288;50.514;9.678;2022-12-16T06:44:14;98148.47;;;-13.50;100.00
29903;BME280;30288;50.514;9.678;2022-12-16T06:46:34;98150.31;;;-13.46;100.00
29903;BME280;30288;50.514;9.678;2022-12-16T06:48:52;98149.47;;;-13.32;100.00
29903;BME280;30288;50.514;9.678;2022-12-16T06:51:10;98150.91;;;-13.50;100.00
29903;BME280;30288;50.514;9.678;2022-12-16T06:53:27;98161.66;;;-13.45;100.00
29903;BME280;30288;50.514;9.678;2022-12-16T06:55:45;98167.84;;;-13.50;100.00
29903;BME280;30288;50.514;9.678;2022-12-16T06:58:03;98171.00;;;-13.51;100.00
29903;BME280;30288;50.514;9.678;2022-12-16T07:00:21;98184.00;;;-13.49;100.00
29903;BME280;30288;50.514;9.678;2022-12-16T07:02:41;98175.50;;;-13.42;100.00
29903;BME280;30288;50.514;9.678;2022-12-16T07:05:13;98180.22;;;-13.30;100.00
29903;BME280;30288;50.514;9.678;2022-12-16T07:07:31;98185.38;;;-13.24;100.00
29903;BME280;30288;50.514;9.678;2022-12-16T07:09:48;98197.16;;;-13.30;100.00
29903;BME280;30288;50.514;9.678;2022-12-16T07:12:06;98196.06;;;-13.36;100.00
29903;BME280;30288;50.514;9.678;2022-12-16T07:14:23;98202.75;;;-13.32;100.00
29903;BME280;30288;50.514;9.678;2022-12-16T07:16:41;98206.75;;;-13.32;100.00
29903;BME280;30288;50.514;9.678;2022-12-16T07:19:01;98205.75;;;-13.36;100.00
29903;BME280;30288;50.514;9.678;2022-12-16T07:21:19;98210.41;;;-13.39;100.00
29903;BME280;30288;50.514;9.678;2022-12-16T07:23:36;98208.25;;;-13.19;100.00
29903;BME280;30288;50.514;9.678;2022-12-16T07:25:53;98211.78;;;-13.14;100.00
29903;BME280;30288;50.514;9.678;2022-12-16T07:28:11;98218.75;;;-13.04;100.00
29903;BME280;30288;50.514;9.678;2022-12-16T07:30:28;98217.78;;;-13.08;100.00
29903;BME280;30288;50.514;9.678;2022-12-16T07:32:48;98224.94;;;-13.09;100.00
29903;BME280;30288;50.514;9.678;2022-12-16T07:35:09;98234.78;;;-13.06;100.00
29903;BME280;30288;50.514;9.678;2022-12-16T07:37:26;98229.31;;;-12.89;100.00
29903;BME280;30288;50.514;9.678;2022-12-16T07:39:44;98235.53;;;-12.78;100.00
29903;BME280;30288;50.514;9.678;2022-12-16T07:42:02;98236.06;;;-12.69;100.00
29903;BME280;30288;50.514;9.678;2022-12-16T07:44:20;98240.47;;;-12.47;100.00
29903;BME280;30288;50.514;9.678;2022-12-16T07:46:43;98230.59;;;-12.35;100.00
29903;BME280;30288;50.514;9.678;2022-12-16T07:49:04;98234.72;;;-12.18;100.00
29903;BME280;30288;50.514;9.678;2022-12-16T07:51:24;98230.81;;;-12.00;100.00
29903;BME280;30288;50.514;9.678;2022-12-16T07:53:45;98237.28;;;-11.84;100.00
29903;BME280;30288;50.514;9.678;2022-12-16T07:56:04;98229.91;;;-11.70;100.00
29903;BME280;30288;50.514;9.678;2022-12-16T07:58:21;98243.78;;;-11.51;100.00
29903;BME280;30288;50.514;9.678;2022-12-16T08:00:39;98253.13;;;-11.42;100.00
29903;BME280;30288;50.514;9.678;2022-12-16T08:02:57;98253.88;;;-11.27;100.00
29903;BME280;30288;50.514;9.678;2022-12-16T08:05:15;98254.91;;;-11.06;100.00
29903;BME280;30288;50.514;9.678;2022-12-16T08:07:39;98261.88;;;-10.96;100.00
29903;BME280;30288;50.514;9.678;2022-12-16T08:09:57;98259.53;;;-10.94;100.00
29903;BME280;30288;50.514;9.678;2022-12-16T08:12:14;98260.19;;;-10.97;100.00
29903;BME280;30288;50.514;9.678;2022-12-16T08:14:32;98264.63;;;-10.90;100.00
29903;BME280;30288;50.514;9.678;2022-12-16T08:16:49;98267.06;;;-10.72;100.00
29903;BME280;30288;50.514;9.678;2022-12-16T08:19:07;98274.44;;;-10.71;100.00
29903;BME280;30288;50.514;9.678;2022-12-16T08:21:24;98272.63;;;-10.75;100.00
29903;BME280;30288;50.514;9.678;2022-12-16T08:23:44;98277.72;;;-10.70;100.00
29903;BME280;30288;50.514;9.678;2022-12-16T08:26:02;98281.69;;;-10.54;100.00
29903;BME280;30288;50.514;9.678;2022-12-16T08:28:20;98280.13;;;-10.36;100.00
29903;BME280;30288;50.514;9.678;2022-12-16T08:30:38;98277.31;;;-10.26;100.00
29903;BME280;30288;50.514;9.678;2022-12-16T08:32:56;98279.03;;;-10.06;100.00
29903;BME280;30288;50.514;9.678;2022-12-16T08:35:21;98278.59;;;-9.97;100.00
29903;BME280;30288;50.514;9.678;2022-12-16T08:37:38;98281.66;;;-9.84;100.00
29903;BME280;30288;50.514;9.678;2022-12-16T08:39:59;98286.03;;;-9.77;100.00
29903;BME280;30288;50.514;9.678;2022-12-16T08:42:37;98296.28;;;-9.84;100.00
29903;BME280;30288;50.514;9.678;2022-12-16T08:44:57;98296.69;;;-9.75;100.00
29903;BME280;30288;50.514;9.678;2022-12-16T08:47:15;98312.53;;;-9.83;100.00
29903;BME280;30288;50.514;9.678;2022-12-16T08:49:33;98304.00;;;-9.75;100.00
29903;BME280;30288;50.514;9.678;2022-12-16T08:51:53;98303.56;;;-9.66;100.00
29903;BME280;30288;50.514;9.678;2022-12-16T08:54:10;98303.88;;;-9.58;100.00
29903;BME280;30288;50.514;9.678;2022-12-16T08:56:31;98308.13;;;-9.35;100.00
29903;BME280;30288;50.514;9.678;2022-12-16T08:58:48;98315.06;;;-9.25;100.00
29903;BME280;30288;50.514;9.678;2022-12-16T09:01:06;98319.88;;;-9.07;100.00
29903;BME280;30288;50.514;9.678;2022-12-16T09:03:24;98333.03;;;-8.84;100.00
29903;BME280;30288;50.514;9.678;2022-12-16T09:05:44;98329.41;;;-8.73;100.00
29903;BME280;30288;50.514;9.678;2022-12-16T09:08:03;98335.47;;;-8.65;100.00
29903;BME280;30288;50.514;9.678;2022-12-16T09:10:20;98340.44;;;-8.62;100.00
29903;BME280;30288;50.514;9.678;2022-12-16T09:12:44;98349.41;;;-8.42;100.00
29903;BME280;30288;50.514;9.678;2022-12-16T09:15:01;98342.19;;;-8.39;100.00
29903;BME280;30288;50.514;9.678;2022-12-16T09:17:19;98348.88;;;-8.35;100.00
29903;BME280;30288;50.514;9.678;2022-12-16T09:19:36;98351.59;;;-8.27;100.00
29903;BME280;30288;50.514;9.678;2022-12-16T09:21:56;98351.63;;;-8.26;100.00
29903;BME280;30288;50.514;9.678;2022-12-16T09:24:14;98354.88;;;-8.27;100.00
29903;BME280;30288;50.514;9.678;2022-12-16T09:26:31;98351.03;;;-8.20;100.00
29903;BME280;30288;50.514;9.678;2022-12-16T09:28:52;98363.41;;;-8.17;100.00
29903;BME280;30288;50.514;9.678;2022-12-16T09:31:09;98364.19;;;-8.17;100.00
29903;BME280;30288;50.514;9.678;2022-12-16T09:33:27;98364.50;;;-8.09;100.00
29903;BME280;30288;50.514;9.678;2022-12-16T09:35:45;98361.31;;;-8.08;100.00
29903;BME280;30288;50.514;9.678;2022-12-16T09:38:02;98361.50;;;-8.02;100.00
29903;BME280;30288;50.514;9.678;2022-12-16T09:40:21;98366.59;;;-7.98;100.00
29903;BME280;30288;50.514;9.678;2022-12-16T09:42:48;98364.28;;;-7.94;100.00
29903;BME280;30288;50.514;9.678;2022-12-16T09:45:17;98365.16;;;-7.92;100.00
29903;BME280;30288;50.514;9.678;2022-12-16T09:47:45;98363.28;;;-7.77;100.00
29903;BME280;30288;50.514;9.678;2022-12-16T09:50:19;98365.53;;;-7.61;100.00
29903;BME280;30288;50.514;9.678;2022-12-16T09:52:43;98366.22;;;-7.43;100.00
29903;BME280;30288;50.514;9.678;2022-12-16T09:55:04;98363.19;;;-7.36;100.00
29903;BME280;30288;50.514;9.678;2022-12-16T09:57:23;98353.72;;;-7.27;100.00
29903;BME280;30288;50.514;9.678;2022-12-16T09:59:47;98364.81;;;-7.14;100.00
29903;BME280;30288;50.514;9.678;2022-12-16T10:02:17;98366.78;;;-7.04;100.00
29903;BME280;30288;50.514;9.678;2022-12-16T10:04:35;98359.47;;;-7.02;100.00
29903;BME280;30288;50.514;9.678;2022-12-16T10:06:58;98362.69;;;-6.81;100.00
29903;BME280;30288;50.514;9.678;2022-12-16T10:09:26;98358.13;;;-6.47;100.00
29903;BME280;30288;50.514;9.678;2022-12-16T10:11:52;98367.13;;;-6.21;100.00
29903;BME280;30288;50.514;9.678;2022-12-16T10:14:16;98355.72;;;-5.65;100.00
29903;BME280;30288;50.514;9.678;2022-12-16T10:16:41;98361.97;;;-5.19;100.00
29903;BME280;30288;50.514;9.678;2022-12-16T10:19:11;98364.22;;;-4.97;100.00
29903;BME280;30288;50.514;9.678;2022-12-16T10:21:39;98355.81;;;-4.75;100.00
29903;BME280;30288;50.514;9.678;2022-12-16T10:24:07;98354.44;;;-4.64;100.00
29903;BME280;30288;50.514;9.678;2022-12-16T10:26:38;98350.91;;;-4.43;100.00
29903;BME280;30288;50.514;9.678;2022-12-16T10:29:05;98348.66;;;-4.33;100.00
29903;BME280;30288;50.514;9.678;2022-12-16T10:31:23;98356.25;;;-4.24;100.00
29903;BME280;30288;50.514;9.678;2022-12-16T10:33:42;98350.19;;;-4.04;100.00
29903;BME280;30288;50.514;9.678;2022-12-16T10:36:12;98351.56;;;-3.79;100.00
29903;BME280;30288;50.514;9.678;2022-12-16T10:38:35;98359.97;;;-3.71;100.00
29903;BME280;30288;50.514;9.678;2022-12-16T10:40:55;98349.34;;;-3.69;100.00
29903;BME280;30288;50.514;9.678;2022-12-16T10:43:16;98344.56;;;-3.63;100.00
29903;BME280;30288;50.514;9.678;2022-12-16T10:45:40;98341.38;;;-3.59;100.00
29903;BME280;30288;50.514;9.678;2022-12-16T10:48:00;98349.00;;;-3.46;100.00
29903;BME280;30288;50.514;9.678;2022-12-16T10:50:18;98347.50;;;-3.40;100.00
29903;BME280;30288;50.514;9.678;2022-12-16T10:52:44;98354.59;;;-3.15;100.00
29903;BME280;30288;50.514;9.678;2022-12-16T10:55:16;98359.78;;;-3.01;100.00
29903;BME280;30288;50.514;9.678;2022-12-16T10:57:49;98360.94;;;-2.84;100.00
29903;BME280;30288;50.514;9.678;2022-12-16T11:00:15;98363.69;;;-2.69;100.00
29903;BME280;30288;50.514;9.678;2022-12-16T11:02:33;98369.63;;;-2.57;100.00
29903;BME280;30288;50.514;9.678;2022-12-16T11:04:51;98365.28;;;-2.24;100.00
29903;BME280;30288;50.514;9.678;2022-12-16T11:07:25;98362.94;;;-2.16;100.00
29903;BME280;30288;50.514;9.678;2022-12-16T11:09:46;98361.47;;;-2.05;100.00
29903;BME280;30288;50.514;9.678;2022-12-16T11:12:19;98360.66;;;-2.06;100.00
29903;BME280;30288;50.514;9.678;2022-12-16T11:14:37;98360.78;;;-1.97;100.00
29903;BME280;30288;50.514;9.678;2022-12-16T11:17:18;98361.09;;;-1.76;100.00
29903;BME280;30288;50.514;9.678;2022-12-16T11:19:35;98367.69;;;-1.74;100.00
29903;BME280;30288;50.514;9.678;2022-12-16T11:22:06;98372.66;;;-1.73;100.00
29903;BME280;30288;50.514;9.678;2022-12-16T11:24:24;98367.75;;;-1.71;100.00
29903;BME280;30288;50.514;9.678;2022-12-16T11:26:52;98366.81;;;-1.78;100.00
29903;BME280;30288;50.514;9.678;2022-12-16T11:29:12;98367.69;;;-1.74;100.00
29903;BME280;30288;50.514;9.678;2022-12-16T11:31:30;98372.09;;;-1.55;100.00
29903;BME280;30288;50.514;9.678;2022-12-16T11:33:48;98374.66;;;-1.49;100.00
29903;BME280;30288;50.514;9.678;2022-12-16T11:36:14;98369.75;;;-1.46;100.00
29903;BME280;30288;50.514;9.678;2022-12-16T11:38:40;98377.78;;;-1.59;100.00
29903;BME280;30288;50.514;9.678;2022-12-16T11:40:59;98383.09;;;-1.32;100.00
29903;BME280;30288;50.514;9.678;2022-12-16T11:43:20;98386.13;;;-1.51;100.00
29903;BME280;30288;50.514;9.678;2022-12-16T11:45:40;98377.94;;;-1.47;100.00
29903;BME280;30288;50.514;9.678;2022-12-16T11:48:04;98387.50;;;-1.70;100.00
29903;BME280;30288;50.514;9.678;2022-12-16T11:50:50;98390.69;;;-1.79;100.00
29903;BME280;30288;50.514;9.678;2022-12-16T11:53:25;98396.66;;;-1.64;100.00
29903;BME280;30288;50.514;9.678;2022-12-16T11:55:49;98394.31;;;-1.55;100.00
29903;BME280;30288;50.514;9.678;2022-12-16T11:58:27;98399.22;;;-1.58;100.00